CheckWX is a tool to help pilots better visualize weather data.  It is not intended as a substitute for an official pre-flight weather briefing.

08:16:59 UTC

KFOE METAR
Topeka Regional Airport
Topeka, Kansas, USA
Current

24 mins ago

KFOE 290753Z AUTO 31005KT 10SM CLR 15/09 A3011 RMK AO2 SLP190 T01500094
Observed
May-29 @ 07:53 UTC
Wind
  • 310° at 5 KTS
Visibility
Flight Rules
VFR
Cloud Levels
  • Clear skies
Temperature
15°C / 59°F
Dewpoint
C / 48°F
Humidity
68%
Altimeter
30.11" Hg
Pressure
1019.62 hPa
Previous

1 hour ago

KFOE 290653Z AUTO 34006KT 10SM CLR 17/09 A3010 RMK AO2 SLP187 T01670089
Observed
May-29 @ 06:53 UTC
Wind
  • 340° at 6 KTS
Visibility
Flight Rules
VFR
Cloud Levels
  • Clear skies
Temperature
17°C / 63°F
Dewpoint
C / 48°F
Humidity
59%
Altimeter
30.1" Hg
Pressure
1019.32 hPa
Previous

2 hours ago

KFOE 290553Z AUTO 34006KT 10SM CLR 17/12 A3008 RMK AO2 SLP179 T01720117 10244 20167 402560167 51013
Observed
May-29 @ 05:53 UTC
Wind
  • 340° at 6 KTS
Visibility
Flight Rules
VFR
Cloud Levels
  • Clear skies
Dewpoint
12°C / 54°F
Humidity
73%
Altimeter
30.08" Hg
Pressure
1018.62 hPa